首页
METAR-TAF:

METAR-TAF

机场 :

爱德华·劳伦斯·洛根将军国际机场

波士顿, 马萨诸塞州, 美国

纬度: 42-21-38N, 经度: 071-00-38W, 海拔: 6米

当前天气观测

该预报发布于34分钟前的11:01 UTC
风速21节,风向南转西南,有时为26节阵风
温度 11°C
湿度 87%
气压 1008 hPa
能見度: 11.3公里
少量云层高于1500英尺
多云层高于2400英尺
阴天层高于3500英尺

METAR: KBOS 241101Z 20021G26KT 7SM FEW015 BKN024 OVC035 11/09 A2976 RMK AO2 PK WND 20026/1058 T01110089

时间: 06:35 (11:35 UTC)

预报

该预报发布于2小时和25分钟前的09:10 UTC
预报有效从24日的 09点(UTC)到 25日的 12点(UTC)
风速12节,风向南转西南,有时为25节阵风
能見度: 10公里
阴天层高于1500英尺
从 24日的 1100点(UTC)
风速14节,风向,有时为28节阵风
能見度: 9.7公里
阴天层高于1200英尺
小雨, 轻雾
从 24日的 1800点(UTC)
风速26节,风向,有时为40节阵风
能見度: 3.2公里
阴天层高于700英尺
雨, 轻雾
从 24日的 2300点(UTC)
风速15节,风向西转西南,有时为27节阵风
能見度: 9.7公里
多云层高于2000英尺
小雨, 轻雾
从 25日的 0300点(UTC)
风速11节,风向西,有时为20节阵风
能見度: 10公里
天空无云

TAF: KBOS 240910Z 2409/2512 21012G25KT P6SM OVC015 WS020/23045KT FM241100 19014G28KT 6SM -RA BR OVC012 WS020/21050KT FM241800 18026G40KT 2SM RA BR OVC007 WS020/21050KT FM242300 25015G27KT 6SM -RA BR BKN020 FM250300 27011G20KT P6SM SKC

超过4000个机场的气象观测和天气预报(METAR&TAF报告)。

可查询的气象台以黄色和红色小点在地图上表示。

将鼠标移到小点上方,可查看气象台名称。

然后点击查看天气观测和预报。

如需切换地图:点击带黑十字的绿色按钮放大地图;点击带横线的绿色按钮缩小地图;或者点击绿色箭头查看邻近地区的地图。


METAR-TAF: